Provisional Data: Yellow Breeches Creek near Lisburn, PA


Please select a monitoring station.
Please select start date.
Please select start date.

Toggle Unit: C/F Toggle Unit: C/F
Sample Time Temperature (C) Temperature (F) Specific Conductivity (mS/cm) pH   Turbidity (NTU+) DO (mg/L)
5/5/2022 11:30:00 AM 15.76 60.368 0.212 1.71 8.34 121.8
5/5/2022 11:45:00 AM 15.91 60.638 0.211 1.7 8.4 124.2
5/5/2022 12:00:00 PM 16.04 60.872 0.211 1.7 8.44 125.4
5/5/2022 12:15:00 PM 16.15 61.07 0.211 1.71 8.5 127.4
5/5/2022 12:30:00 PM 16.24 61.232 0.211 1.73 8.55 129.1
5/5/2022 12:45:00 PM 16.41 61.538 0.211 1.71 8.57 131.1
5/5/2022 1:00:00 PM 16.57 61.826 0.212 1.71 8.63 133.2
5/5/2022 1:15:00 PM 16.74 62.132 0.212 1.7 8.66 134.9
5/5/2022 1:30:00 PM 16.89 62.402 0.213 1.69 8.69 136.1
5/5/2022 1:45:00 PM 16.94 62.492 0.214 1.67 8.69 136.7
5/5/2022 2:00:00 PM 17.07 62.726 0.214 1.67 8.7 136.6
5/5/2022 2:15:00 PM 17.23 63.014 0.213 1.66 8.75 139.1
5/5/2022 2:30:00 PM 17.34 63.212 0.212 1.66 8.76 139.5
5/5/2022 2:45:00 PM 17.41 63.338 0.213 1.64 8.78 139.3
5/5/2022 3:00:00 PM 17.55 63.59 0.212 1.64 8.8 140.2
5/5/2022 3:15:00 PM 17.66 63.788 0.212 1.62 8.82 140.5
5/5/2022 3:30:00 PM 17.77 63.986 0.212 8.83 2.19 13.15
5/5/2022 3:45:00 PM 17.81 64.058 0.213 8.78 2.72 13.04
5/5/2022 4:00:00 PM 18 64.4 0.214 8.84 3.23 13.1
5/5/2022 4:15:00 PM 18.09 64.562 0.215 8.85 3.36 13.07
5/5/2022 4:30:00 PM 18.16 64.688 0.217 8.86 3.05 12.99
5/5/2022 4:45:00 PM 18.21 64.778 0.218 8.87 2.35 12.93
5/5/2022 5:00:00 PM 18.28 64.904 0.217 8.86 2.55 12.85
5/5/2022 5:15:00 PM 18.33 64.994 0.217 8.86 1.91 12.76
5/5/2022 5:30:00 PM 18.34 65.012 0.217 8.86 2.8 12.63
5/5/2022 5:45:00 PM 18.36 65.048 0.216 8.85 3.7 12.49
5/5/2022 6:00:00 PM 18.32 64.976 0.216 8.84 2.49 12.27
5/5/2022 6:15:00 PM 18.29 64.922 0.216 8.83 2.49 12.03
5/5/2022 6:30:00 PM 18.27 64.886 0.216 8.81 2.35 11.83
5/5/2022 6:45:00 PM 18.19 64.742 0.217 8.77 2.89 11.57
5/5/2022 7:00:00 PM 18.22 64.796 0.219 8.76 2.94 11.38
5/5/2022 7:15:00 PM 18.19 64.742 0.222 8.73 2.28 11.21
5/5/2022 7:30:00 PM 18.15 64.67 0.225 8.71 2.8 10.98
5/5/2022 7:45:00 PM 18.13 64.634 0.227 8.67 2.11 10.76
5/5/2022 8:00:00 PM 18.07 64.526 0.227 8.63 9.01 10.49
5/5/2022 8:15:00 PM 18.03 64.454 0.227 8.61 2.68 10.29
5/5/2022 8:30:00 PM 17.98 64.364 0.227 8.57 2.57 10.05
5/5/2022 8:45:00 PM 17.95 64.31 0.225 8.51 3.07 9.81
5/5/2022 9:00:00 PM 17.89 64.202 0.226 8.45 2.72 9.5
5/5/2022 9:15:00 PM 17.89 64.202 0.224 8.43 2.66 9.33
5/5/2022 9:30:00 PM 17.83 64.094 0.224 8.36 4.08 9.09
5/5/2022 9:45:00 PM 17.81 64.058 0.224 8.33 3 8.96
5/5/2022 10:00:00 PM 17.76 63.968 0.225 8.29 3.44 8.81
5/5/2022 10:15:00 PM 17.71 63.878 0.227 8.23 2.51 8.66
5/5/2022 10:30:00 PM 17.66 63.788 0.23 8.19 2.43 8.53
5/5/2022 10:45:00 PM 17.62 63.716 0.232 8.13 2.22 8.39
5/5/2022 11:00:00 PM 17.59 63.662 0.233 8.09 2.2 8.27
5/5/2022 11:15:00 PM 17.54 63.572 0.234 8.05 0.57 8.23
5/5/2022 11:30:00 PM 17.51 63.518 0.232 8.02 2.22 8.17
5/5/2022 11:45:00 PM 17.51 63.518 0.231 8.02 8.23 8.1
5/6/2022 12:00:00 AM 17.45 63.41 0.23 8.01 181.6 8.04
5/6/2022 12:15:00 AM 17.38 63.284 0.23 7.95 1112 7.96
5/6/2022 12:30:00 AM 17.44 63.392 0.229 7.96 2171 7.94
5/6/2022 12:45:00 AM 17.38 63.284 0.231 7.94 2951 7.86
5/6/2022 1:00:00 AM 17.36 63.248 0.23 7.92 3468 7.85
5/6/2022 1:15:00 AM 17.35 63.23 0.23 7.92 4237 7.84
5/6/2022 1:30:00 AM 17.32 63.176 0.227 7.88 2632 7.75
5/6/2022 1:45:00 AM 17.29 63.122 0.222 7.87 2310 7.77
5/6/2022 2:00:00 AM 17.23 63.014 0.235 7.83 2071 7.67
5/6/2022 2:15:00 AM 17.18 62.924 0.238 7.84 1925 7.64
5/6/2022 2:30:00 AM 17.15 62.87 0.235 7.8 1320 7.62
5/6/2022 2:45:00 AM 17.13 62.834 0.234 7.81 1421 7.67
5/6/2022 3:00:00 AM 17.08 62.744 0.233 7.8 1361 7.66
5/6/2022 3:15:00 AM 17.03 62.654 0.232 7.78 3.95 7.65
5/6/2022 3:30:00 AM 16.97 62.546 0.232 7.76 4.3 7.56
5/6/2022 3:45:00 AM 16.89 62.402 0.236 7.72 3.15 7.49
5/6/2022 4:00:00 AM 16.87 62.366 0.232 7.74 2.77 7.61
5/6/2022 4:15:00 AM 16.81 62.258 0.234 7.73 3.14 7.55
5/6/2022 4:30:00 AM 16.75 62.15 0.236 7.72 2.39 7.6
5/6/2022 4:45:00 AM 16.69 62.042 0.237 7.67 3.86 7.49
5/6/2022 5:00:00 AM 16.65 61.97 0.238 7.69 3.77 7.6
5/6/2022 5:15:00 AM 16.6 61.88 0.231 7.69 3.77 7.57
5/6/2022 5:30:00 AM 16.55 61.79 0.226 7.68 3.67 7.59
5/6/2022 5:45:00 AM 16.49 61.682 0.214 7.68 3.09 7.61
5/6/2022 6:00:00 AM 16.45 61.61 0.221 7.66 3.61 7.54
5/6/2022 6:15:00 AM 16.41 61.538 0.232 7.64 3.69 7.54
5/6/2022 6:30:00 AM 16.37 61.466 0.232 7.64 3.34 7.57
5/6/2022 6:45:00 AM 16.34 61.412 0.225 7.64 4.49 7.62
5/6/2022 7:00:00 AM 16.29 61.322 0.227 7.65 2.88 7.65
5/6/2022 7:15:00 AM 16.26 61.268 0.233 7.64 6.48 7.65
5/6/2022 7:30:00 AM 16.23 61.214 0.234 7.65 3.57 7.71
5/6/2022 7:45:00 AM 16.21 61.178 0.236 7.64 3.58 7.75
5/6/2022 8:00:00 AM 16.17 61.106 0.236 7.64 3.54 7.75
5/6/2022 8:15:00 AM 16.15 61.07 0.235 7.64 6.08 7.81
5/6/2022 8:30:00 AM 16.13 61.034 0.235 7.65 4.88 7.92
5/6/2022 8:45:00 AM 16.11 60.998 0.232 7.66 3.82 7.99
5/6/2022 9:00:00 AM 16.08 60.944 0.23 7.68 3.6 8.09
5/6/2022 9:15:00 AM 16.06 60.908 0.23 7.69 4.62 8.18
5/6/2022 9:30:00 AM 16.03 60.854 0.228 7.7 5.79 8.25
5/6/2022 9:45:00 AM 15.99 60.782 0.222 7.7 3.54 8.31
5/6/2022 10:00:00 AM 15.95 60.71 0.229 7.72 4.73 8.39
5/6/2022 10:15:00 AM 15.91 60.638 0.228 7.71 6.77 8.44
5/6/2022 10:30:00 AM 15.87 60.566 0.229 7.73 7.93 8.45
5/6/2022 10:45:00 AM 15.82 60.476 0.195 7.73 9.58 8.49
5/6/2022 11:00:00 AM 15.76 60.368 0.214 7.73 17.68 8.47
5/6/2022 11:15:00 AM 15.69 60.242 0.204 7.72 13.52 8.54
5/6/2022 11:30:00 AM 15.61 60.098 0.195 7.72 23.87 8.55
5/6/2022 11:45:00 AM 15.48 59.864 0.215 7.71 35.53 8.5
5/6/2022 12:00:00 PM 15.38 59.684 0.214 7.7 60.19 8.54
5/6/2022 12:15:00 PM 15.29 59.522 0.197 7.69 49.84 8.55
5/6/2022 12:30:00 PM 15.21 59.378 0.196 7.67 97.76 8.57
5/6/2022 12:45:00 PM 15.13 59.234 0.192 7.66 89.23 8.58
5/6/2022 1:00:00 PM 15.06 59.108 0.192 7.65 75.74 8.57
5/6/2022 1:15:00 PM 14.97 58.946 0.196 7.64 65.01 8.58
5/6/2022 1:30:00 PM 14.85 58.73 0.185 7.63 73.17 8.63
5/6/2022 1:45:00 PM 14.72 58.496 0.182 7.61 118.2 8.64
5/6/2022 2:00:00 PM 14.59 58.262 0.178 7.59 152.6 8.67
5/6/2022 2:15:00 PM 14.48 58.064 0.168 7.58 157.2 8.7
5/6/2022 2:30:00 PM 14.38 57.884 0.171 7.57 104.7 8.73
5/6/2022 2:45:00 PM 14.3 57.74 0.164 7.55 98.18 8.74
5/6/2022 3:00:00 PM 14.23 57.614 0.16 7.53 179.6 8.77
5/6/2022 3:15:00 PM 14.16 57.488 0.158 7.52 163.9 8.8
5/6/2022 3:30:00 PM 14.09 57.362 0.154 7.5 163.1 8.83
5/6/2022 3:45:00 PM 14.04 57.272 0.149 7.49 152.4 8.86
5/6/2022 4:00:00 PM 13.99 57.182 0.143 7.48 130.3 8.88
5/6/2022 4:15:00 PM 13.95 57.11 0.14 7.47 141 8.91
5/6/2022 4:30:00 PM 13.89 57.002 0.141 7.46 186.3 8.93
5/6/2022 4:45:00 PM 13.84 56.912 0.133 7.45 153.5 8.94
5/6/2022 5:00:00 PM 13.78 56.804 0.142 7.44 197.3 8.96
5/6/2022 5:15:00 PM 13.73 56.714 0.134 7.44 188.7 8.99
5/6/2022 5:30:00 PM 13.7 56.66 0.128 7.43 176.6 8.98
5/6/2022 5:45:00 PM 13.68 56.624 0.131 7.43 150.9 9
5/6/2022 6:00:00 PM 13.66 56.588 0.129 7.44 152.6 8.97
5/6/2022 6:15:00 PM 13.63 56.534 0.125 7.45 106.7 8.93
5/6/2022 6:30:00 PM 13.6 56.48 0.132 7.45 101.6 8.91
5/6/2022 6:45:00 PM 13.57 56.426 0.129 7.45 69.26 8.83
5/6/2022 7:00:00 PM 13.54 56.372 0.131 7.45 121.7 8.76
5/6/2022 7:15:00 PM 13.51 56.318 0.138 7.45 5574 8.97
5/6/2022 7:30:00 PM 13.47 56.246 0.132 7.45 5574 9.01
5/6/2022 7:45:00 PM 13.44 56.192 0.133 7.45 5574 8.99
5/6/2022 8:00:00 PM 13.4 56.12 0.132 7.43 5574 8.98
5/6/2022 8:15:00 PM 13.37 56.066 0.133 7.44 5574 8.99
5/6/2022 8:30:00 PM 13.34 56.012 0.136 7.45 110.4 8.64
5/6/2022 8:45:00 PM 13.38 56.084 0.132 7.44 5341 8.92
5/6/2022 9:00:00 PM 13.32 55.976 0.134 7.45 5574 8.95
5/6/2022 9:15:00 PM 13.3 55.94 0.139 7.45 5574 8.96
5/6/2022 9:30:00 PM 13.28 55.904 0.124 7.45 5574 8.94
5/6/2022 9:45:00 PM 13.25 55.85 0.134 7.44 5574 8.95
5/6/2022 10:00:00 PM 13.23 55.814 0.138 7.45 5574 8.95
5/6/2022 10:15:00 PM 13.22 55.796 0.139 7.45 5505 8.94
5/6/2022 10:30:00 PM 13.19 55.742 0.141 7.45 4730 8.96
5/6/2022 10:45:00 PM 13.12 55.616 0.141 7.45 4032 8.96
5/6/2022 11:00:00 PM 13.08 55.544 0.142 7.45 3785 8.97
5/6/2022 11:15:00 PM 13.05 55.49 0.142 7.45 3375 8.98
5/6/2022 11:30:00 PM 13.02 55.436 0.142 7.45 3240 9
5/6/2022 11:45:00 PM 12.99 55.382 0.142 7.47 3079 9.03
5/7/2022 12:00:00 AM 12.96 55.328 0.143 7.46 2850 9.03
5/7/2022 12:15:00 AM 12.94 55.292 0.142 7.47 2734 9.02
5/7/2022 12:30:00 AM 12.91 55.238 0.145 7.47 2675 9.02
5/7/2022 12:45:00 AM 12.88 55.184 0.139 7.47 2585 9.01
5/7/2022 1:00:00 AM 12.86 55.148 0.149 7.46 2484 9.05
5/7/2022 1:15:00 AM 12.84 55.112 0.151 7.45 2419 9.02
5/7/2022 1:30:00 AM 12.81 55.058 0.148 7.45 2344 9.01
5/7/2022 1:45:00 AM 12.78 55.004 0.148 7.44 2248 9.05
5/7/2022 2:00:00 AM 12.77 54.986 0.145 7.45 2115 9.05
5/7/2022 2:15:00 AM 12.71 54.878 0.144 7.46 2018 9.05
5/7/2022 2:30:00 AM 12.67 54.806 0.143 7.45 1932 9.08
5/7/2022 2:45:00 AM 12.65 54.77 0.142 7.45 1822 9.09
5/7/2022 3:00:00 AM 12.62 54.716 0.138 7.43 1752 9.08
5/7/2022 3:15:00 AM 12.57 54.626 0.139 7.45 1708 9.09
5/7/2022 3:30:00 AM 12.53 54.554 0.137 7.44 1651 9.09
5/7/2022 3:45:00 AM 12.5 54.5 0.132 7.44 1650 9.07
5/7/2022 4:00:00 AM 12.45 54.41 0.135 7.44 1626 9.08
5/7/2022 4:15:00 AM 12.42 54.356 0.138 7.42 1528 9.13
5/7/2022 4:30:00 AM 12.39 54.302 0.136 7.42 1516 8.95
5/7/2022 4:45:00 AM 12.33 54.194 0.137 7.41 1538 8.87
5/7/2022 5:00:00 AM 12.3 54.14 0.131 7.41 1469 9.1
5/7/2022 5:15:00 AM 12.25 54.05 0.132 7.41 1443 8.86
5/7/2022 5:30:00 AM 12.21 53.978 0.13 7.41 1481 8.13
5/7/2022 5:45:00 AM 12.15 53.87 0.129 7.41 1412 6.64
5/7/2022 6:00:00 AM 12.11 53.798 0.128 7.4 1388 3.21
5/7/2022 6:15:00 AM 12.04 53.672 0.126 7.41 1371 1.4
5/7/2022 6:30:00 AM 11.98 53.564 0.122 7.41 1350 0.14
5/7/2022 6:45:00 AM 11.93 53.474 0.124 7.41 1334 0.17
5/7/2022 7:00:00 AM 11.89 53.402 0.119 7.39 1308 0.02
5/7/2022 7:15:00 AM 11.84 53.312 0.12 7.39 1289 0.02
5/7/2022 7:30:00 AM 11.8 53.24 0.119 7.39 1274 0.02
5/7/2022 7:45:00 AM 11.77 53.186 0.118 7.37 1352 0.02
5/7/2022 8:00:00 AM 11.73 53.114 0.115 7.37 1237 0.02
5/7/2022 8:15:00 AM 11.71 53.078 0.116 7.36 1206 0.02
5/7/2022 8:30:00 AM 11.69 53.042 0.114 7.36 1172 0.02
5/7/2022 8:45:00 AM 11.67 53.006 0.116 7.37 1130 0.02
5/7/2022 9:00:00 AM 11.66 52.988 0.111 7.35 1094 0.02
5/7/2022 9:15:00 AM 11.65 52.97 0.113 7.36 1050 0.02
5/7/2022 9:30:00 AM 11.65 52.97 0.113 7.35 1008 0.02
5/7/2022 9:45:00 AM 11.65 52.97 0.121 7.34 964 0.02
5/7/2022 10:00:00 AM 11.62 52.916 0.118 7.34 924.2 0.02
5/7/2022 10:15:00 AM 11.62 52.916 0.115 7.34 875.9 0.02
5/7/2022 10:30:00 AM 11.61 52.898 0.114 7.34 833.3 2.02
5/7/2022 10:45:00 AM 11.61 52.898 0.115 7.35 798.1 0.18
5/7/2022 11:00:00 AM 11.62 52.916 0.106 7.34 778.8 0.02
5/7/2022 11:15:00 AM 11.62 52.916 0.121 7.34 736.4 0.02
5/7/2022 11:30:00 AM 11.62 52.916 0.121 7.35 701.7 0.03
5/7/2022 11:45:00 AM 11.62 52.916 0.122 7.34 651.2 0.94
5/7/2022 12:00:00 PM 11.62 52.916 0.122 7.35 606.3 0.46
5/7/2022 12:15:00 PM 11.62 52.916 0.122 7.34 562.3 1.25
5/7/2022 12:30:00 PM 11.63 52.934 0.122 7.33 525.1 1.87
5/7/2022 12:45:00 PM 11.65 52.97 0.124 7.34 485.1 2.16
5/7/2022 1:00:00 PM 11.66 52.988 0.128 7.34 454.2 2.16
5/7/2022 1:15:00 PM 11.65 52.97 0.112 7.34 422.6 9.32
5/7/2022 1:30:00 PM 11.65 52.97 0.113 7.34 396.1 9.6
5/7/2022 1:45:00 PM 11.65 52.97 0.113 7.34 362 9.59
5/7/2022 2:00:00 PM 11.66 52.988 0.114 7.34 332.3 9.6
5/7/2022 2:15:00 PM 11.65 52.97 0.112 7.34 307.1 9.55
5/7/2022 2:30:00 PM 11.65 52.97 0.111 7.34 285.3 9.48
5/7/2022 2:45:00 PM 11.65 52.97 0.111 7.34 264.6 9.58
5/7/2022 3:00:00 PM 11.65 52.97 0.111 7.34 245.8 9.56
5/7/2022 3:15:00 PM 11.65 52.97 0.11 7.34 218 9.55
5/7/2022 3:30:00 PM 11.65 52.97 0.111 7.34 197.1 9.47
5/7/2022 3:45:00 PM 11.66 52.988 0.095 7.34 162.5 9.53
5/7/2022 4:00:00 PM 11.66 52.988 0.121 7.34 137.5 9.42
5/7/2022 4:15:00 PM 11.67 53.006 0.11 7.34 106.2 9.53
5/7/2022 4:30:00 PM 11.67 53.006 0.11 7.33 83.91 9.59
5/7/2022 4:45:00 PM 11.67 53.006 0.108 7.34 65.38 9.6
5/7/2022 5:00:00 PM 11.66 52.988 0.107 7.35 51.14 9.57
5/7/2022 5:15:00 PM 11.65 52.97 0.106 7.34 44.81 9.47
5/7/2022 5:30:00 PM 11.64 52.952 0.114 7.34 36.11 9.48
5/7/2022 5:45:00 PM 11.63 52.934 0.114 7.34 29.08 9.38
5/7/2022 6:00:00 PM 11.62 52.916 0.114 7.34 21.66 8.94
5/7/2022 6:15:00 PM 11.62 52.916 0.114 7.34 16.01 9.22
5/7/2022 6:30:00 PM 11.61 52.898 0.114 7.34 10.12 9.26
5/7/2022 6:45:00 PM 11.59 52.862 0.114 7.35 7.1 9.09
5/7/2022 7:00:00 PM 11.58 52.844 0.113 7.33 5.18 8.97
5/7/2022 7:15:00 PM 11.56 52.808 0.112 7.33 4.18 9.15
5/7/2022 7:30:00 PM 11.55 52.79 0.111 7.34 3.66 9.22
5/7/2022 7:45:00 PM 11.53 52.754 0.111 7.33 3.14 9.22
5/7/2022 8:00:00 PM 11.51 52.718 0.111 7.34 2.78 8.52
5/7/2022 8:15:00 PM 11.49 52.682 0.117 7.34 2.47 9.56
5/7/2022 8:30:00 PM 11.48 52.664 0.118 7.32 2.14 9.46
5/7/2022 8:45:00 PM 11.46 52.628 0.122 7.34 1.91 9.3
5/7/2022 9:00:00 PM 11.44 52.592 0.122 7.33 1.64 8.79
5/7/2022 9:15:00 PM 11.42 52.556 0.12 7.34 1.36 8.32
5/7/2022 9:30:00 PM 11.41 52.538 0.119 7.33 1.03 7.98
5/7/2022 9:45:00 PM 11.38 52.484 0.119 7.34 0.81 5.33
5/7/2022 10:00:00 PM 11.36 52.448 0.118 7.34 0.58 4.96
5/7/2022 10:15:00 PM 11.34 52.412 0.118 7.31 0.39 6.47
5/7/2022 10:30:00 PM 11.32 52.376 0.117 7.34 0.2 8.21
5/7/2022 10:45:00 PM 11.3 52.34 0.118 7.33 0.09 7.01
5/7/2022 11:00:00 PM 11.29 52.322 0.121 7.32 -0.05 4.87
5/7/2022 11:15:00 PM 11.26 52.268 0.119 7.33 109.3 2.18
5/7/2022 11:30:00 PM 11.24 52.232 0.12 7.32 139.1 9.26
5/7/2022 11:45:00 PM 11.21 52.178 0.12 7.33 103.8 9.65
5/8/2022 12:00:00 AM 11.18 52.124 0.119 7.34 87.43 9.7
5/8/2022 12:15:00 AM 11.16 52.088 0.118 7.33 82.51 9.71
5/8/2022 12:30:00 AM 11.13 52.034 0.114 7.34 392 9.68
5/8/2022 12:45:00 AM 11.1 51.98 0.114 7.33 354.6 9.66
5/8/2022 1:00:00 AM 11.08 51.944 0.114 7.33 423.4 9.67
5/8/2022 1:15:00 AM 11.06 51.908 0.109 7.31 470.4 9.74
5/8/2022 1:30:00 AM 11.04 51.872 0.118 7.32 122.2 8.96
5/8/2022 1:45:00 AM 11 51.8 0.117 7.31 66.59 9.61
5/8/2022 2:00:00 AM 10.97 51.746 0.115 7.32 56.59 9.38
5/8/2022 2:15:00 AM 10.94 51.692 0.115 7.31 43.28 9.19
5/8/2022 2:30:00 AM 10.91 51.638 0.116 7.31 65.04 8.96
5/8/2022 2:45:00 AM 10.89 51.602 0.115 7.31 217.6 9.34
5/8/2022 3:00:00 AM 10.86 51.548 0.115 7.3 322.4 9.4
5/8/2022 3:15:00 AM 10.84 51.512 0.115 7.3 393.4 9.47
5/8/2022 3:30:00 AM 10.81 51.458 0.116 7.29 106.4 9.37
5/8/2022 3:45:00 AM 10.79 51.422 0.118 7.3 88.52 9.75
5/8/2022 4:00:00 AM 10.76 51.368 0.117 7.3 40.02 9.72
5/8/2022 4:15:00 AM 10.72 51.296 0.117 7.29 35.53 9.75
5/8/2022 4:30:00 AM 10.69 51.242 0.116 7.3 35.47 9.75
5/8/2022 4:45:00 AM 10.66 51.188 0.115 7.29 34.18 9.74
5/8/2022 5:00:00 AM 10.63 51.134 0.116 7.28 35.32 9.74
5/8/2022 5:15:00 AM 10.6 51.08 0.114 7.28 39.96 9.74
5/8/2022 5:30:00 AM 10.58 51.044 0.114 7.29 35.27 9.67
5/8/2022 5:45:00 AM 10.56 51.008 0.115 7.29 35.86 9.69
5/8/2022 6:00:00 AM 10.57 51.026 0.116 7.27 928.1 9.72
5/8/2022 6:15:00 AM 10.54 50.972 0.116 7.28 1113 9.79
5/8/2022 6:30:00 AM 10.51 50.918 0.115 7.28 612 9.82
5/8/2022 6:45:00 AM 10.48 50.864 0.117 7.28 488.5 9.81
5/8/2022 7:00:00 AM 10.46 50.828 0.111 7.28 404.6 9.78
5/8/2022 7:15:00 AM 10.44 50.792 0.117 7.29 626.5 9.81
5/8/2022 7:30:00 AM 10.43 50.774 0.116 7.28 22.66 9.7
5/8/2022 7:45:00 AM 10.41 50.738 0.116 7.29 244.6 8.25
5/8/2022 8:00:00 AM 10.38 50.684 0.115 7.28 40.97 9.85
5/8/2022 8:15:00 AM 10.38 50.684 0.115 7.28 41.7 9.88
5/8/2022 8:30:00 AM 10.37 50.666 0.118 7.28 35.95 9.89
5/8/2022 8:45:00 AM 10.37 50.666 0.118 7.27 5576 9.64
5/8/2022 9:00:00 AM 10.36 50.648 0.117 7.29 5576 9.9
5/8/2022 9:15:00 AM 10.36 50.648 0.117 7.29 5575 9.91
5/8/2022 9:30:00 AM 10.37 50.666 0.117 7.29 5575 9.77
5/8/2022 9:45:00 AM 10.38 50.684 0.113 7.29 5575 9.78
5/8/2022 10:00:00 AM 10.38 50.684 0.111 7.3 5576 9.39
5/8/2022 10:15:00 AM 10.37 50.666 0.115 7.31 5261 9.5
5/8/2022 10:30:00 AM 10.38 50.684 0.12 7.3 3972 9.37
5/8/2022 10:45:00 AM 10.4 50.72 0.119 7.3 3341 8.36
5/8/2022 11:00:00 AM 10.42 50.756 0.114 7.3 2990 8.92
5/8/2022 11:15:00 AM 10.45 50.81 0.111 7.31 2632 7.73
5/8/2022 11:30:00 AM 10.48 50.864 0.119 7.31 1986 8.82
5/8/2022 11:45:00 AM 10.5 50.9 0.119 7.31 1509 7.23
5/8/2022 12:00:00 PM 10.53 50.954 0.119 7.31 1403 3.62
5/8/2022 12:15:00 PM 10.55 50.99 0.12 7.32 1407 2.2
5/8/2022 12:30:00 PM 10.59 51.062 0.119 7.31 1391 1.44
5/8/2022 12:45:00 PM 10.62 51.116 0.114 7.33 1297 3.18
5/8/2022 1:00:00 PM 10.66 51.188 0.125 7.33 1159 5.45
5/8/2022 1:15:00 PM 10.71 51.278 0.119 7.33 871.9 5.36
5/8/2022 1:30:00 PM 10.78 51.404 0.122 7.34 730.2 2.67
5/8/2022 1:45:00 PM 10.85 51.53 0.122 7.34 931.9 1.33
5/8/2022 2:00:00 PM 10.93 51.674 0.117 7.35 812.9 0.55
5/8/2022 2:15:00 PM 11.04 51.872 0.118 7.35 754.3 0.16
5/8/2022 2:30:00 PM 11.13 52.034 0.11 7.36 628 0.02
5/8/2022 2:45:00 PM 11.21 52.178 0.115 7.36 483.3 0.02
5/8/2022 3:00:00 PM 11.29 52.322 0.115 7.35 415.4 0.02
5/8/2022 3:15:00 PM 11.36 52.448 0.115 7.36 385.1 0.03
5/8/2022 3:30:00 PM 11.43 52.574 0.117 7.37 356.8 0.03
5/8/2022 3:45:00 PM 11.52 52.736 0.123 7.37 343.8 0.04
5/8/2022 4:00:00 PM 11.59 52.862 0.121 7.37 398.1 0.02
5/8/2022 4:15:00 PM 11.66 52.988 0.114 7.38 438.4 0.02
5/8/2022 4:30:00 PM 11.75 53.15 0.118 7.4 499.9 0.02
5/8/2022 4:45:00 PM 11.82 53.276 0.117 7.39 891.8 0.02
5/8/2022 5:00:00 PM 11.89 53.402 0.123 7.39 1576 0.02
5/8/2022 5:15:00 PM 11.95 53.51 0.124 7.38 2124 0.02
5/8/2022 5:30:00 PM 12.01 53.618 0.125 7.39 2020 0.02
5/8/2022 5:45:00 PM 12.06 53.708 0.127 7.39 1247 0.02
5/8/2022 6:00:00 PM 12.11 53.798 0.13 7.39 407.7 0.02
5/8/2022 6:15:00 PM 12.15 53.87 0.129 7.39 30.84 0.02
5/8/2022 6:30:00 PM 12.19 53.942 0.127 7.4 9.69 0.02
5/8/2022 6:45:00 PM 12.22 53.996 0.126 7.42 3.49 0.02
5/8/2022 7:00:00 PM 12.25 54.05 0.127 7.42 0 0.02
5/8/2022 7:15:00 PM 12.28 54.104 0.127 7.42 648.2 0.02
5/8/2022 7:30:00 PM 12.31 54.158 0.128 7.41 0.42 0.02
5/8/2022 7:45:00 PM 12.34 54.212 0.129 7.42 261.1 0.02
5/8/2022 8:00:00 PM 12.37 54.266 0.129 7.43 5116 0.02
5/8/2022 8:15:00 PM 12.41 54.338 0.129 7.42 3287 0.02
5/8/2022 8:30:00 PM 12.43 54.374 0.132 7.42 2242 0.02
5/8/2022 8:45:00 PM 12.44 54.392 0.13 7.43 1505 0.02
5/8/2022 9:00:00 PM 12.45 54.41 0.13 7.42 1556 0.02
5/8/2022 9:15:00 PM 12.45 54.41 0.128 7.42 2002 0.02
5/8/2022 9:30:00 PM 12.45 54.41 0.128 7.42 1890 0.02
5/8/2022 9:45:00 PM 12.46 54.428 0.127 7.42 1887 0.02
5/8/2022 10:00:00 PM 12.46 54.428 0.128 7.42 1820 0.02
5/8/2022 10:15:00 PM 12.46 54.428 0.128 7.4 1871 0.02
5/8/2022 10:30:00 PM 12.46 54.428 0.129 7.42 1850 0.02
5/8/2022 10:45:00 PM 12.47 54.446 0.13 7.42 1771 0.02
5/8/2022 11:00:00 PM 12.48 54.464 0.131 7.41 1778 0.02
5/8/2022 11:15:00 PM 12.48 54.464 0.131 7.41 1776 0.02
5/8/2022 11:30:00 PM 12.48 54.464 0.131 7.39 1643 0.02
5/8/2022 11:45:00 PM 12.49 54.482 0.131 7.41 1529 0.02
5/9/2022 12:00:00 AM 12.49 54.482 0.131 7.41 1433 0.02
5/9/2022 12:15:00 AM 12.49 54.482 0.131 7.41 1404 0.02
5/9/2022 12:30:00 AM 12.49 54.482 0.131 7.39 1427 0.02
5/9/2022 12:45:00 AM 12.48 54.464 0.132 7.37 1445 0.02
5/9/2022 1:00:00 AM 12.47 54.446 0.134 7.36 1394 0.02
5/9/2022 1:15:00 AM 12.46 54.428 0.135 7.35 1408 0.02
5/9/2022 1:30:00 AM 12.44 54.392 0.134 7.34 1196 0.02
5/9/2022 1:45:00 AM 12.42 54.356 0.133 7.35 1166 0.02
5/9/2022 2:00:00 AM 12.39 54.302 0.133 7.37 206.4 0.83
5/9/2022 2:15:00 AM 12.36 54.248 0.133 7.38 9.69 6.41
5/9/2022 2:30:00 AM 12.33 54.194 0.133 7.4 8.37 7.65
5/9/2022 2:45:00 AM 12.3 54.14 0.134 7.33 6.71 4.15
5/9/2022 3:00:00 AM 12.26 54.068 0.134 7.36 5.96 3.81
5/9/2022 3:15:00 AM 12.23 54.014 0.136 7.38 4.89 4.66
5/9/2022 3:30:00 AM 12.2 53.96 0.137 7.37 6.56 5.95
5/9/2022 3:45:00 AM 12.16 53.888 0.139 7.39 5.98 7.04
5/9/2022 4:00:00 AM 12.12 53.816 0.138 7.38 5.17 5.59
5/9/2022 4:15:00 AM 12.08 53.744 0.138 7.33 5.14 4.49
5/9/2022 4:30:00 AM 12.03 53.654 0.137 7.32 5.69 3.35
5/9/2022 4:45:00 AM 11.98 53.564 0.137 7.32 6.35 2.72
5/9/2022 5:00:00 AM 11.93 53.474 0.137 7.31 5.68 3.33
5/9/2022 5:15:00 AM 11.88 53.384 0.136 7.32 5.72 3.23
5/9/2022 5:30:00 AM 11.83 53.294 0.137 7.34 5.14 2.49
5/9/2022 5:45:00 AM 11.77 53.186 0.138 7.32 5.65 2.15
5/9/2022 6:00:00 AM 11.71 53.078 0.14 7.31 5.2 2.05
5/9/2022 6:15:00 AM 11.66 52.988 0.14 7.27 5.04 1.62
5/9/2022 6:30:00 AM 11.6 52.88 0.14 7.3 4.72 1.56
5/9/2022 6:45:00 AM 11.55 52.79 0.141 7.31 4.01 1.36
5/9/2022 7:00:00 AM 11.5 52.7 0.142 7.31 22.26 1.17
5/9/2022 7:15:00 AM 11.44 52.592 0.142 7.35 5.28 1.23
5/9/2022 7:30:00 AM 11.38 52.484 0.141 7.3 5.53 1.14
5/9/2022 7:45:00 AM 11.33 52.394 0.141 7.32 4.71 1.87
5/9/2022 8:00:00 AM 11.28 52.304 0.14 7.37 4.9 2.86
5/9/2022 8:15:00 AM 11.24 52.232 0.14 7.37 4.32 3.05
5/9/2022 8:30:00 AM 11.22 52.196 0.14 7.37 4.77 3.25
5/9/2022 8:45:00 AM 11.21 52.178 0.139 7.39 4.78 3.59
5/9/2022 9:00:00 AM 11.2 52.16 0.139 7.38 5.44 3.52
5/9/2022 9:15:00 AM 11.2 52.16 0.139 7.4 4.99 3.54
5/9/2022 9:30:00 AM 11.21 52.178 0.139 7.4 4.87 3.61
5/9/2022 9:45:00 AM 11.22 52.196 0.139 7.39 7.83 3.45
5/9/2022 10:00:00 AM 11.24 52.232 0.14 7.4 4.89 3.49
5/9/2022 10:15:00 AM 11.27 52.286 0.141 7.4 4.87 3.24
5/9/2022 10:30:00 AM 11.3 52.34 0.141 7.4 22.75 3.05
5/9/2022 10:45:00 AM 11.34 52.412 0.141 7.39 5.18 2.89
5/9/2022 11:00:00 AM 11.38 52.484 0.142 7.4 5.82 2.79
5/9/2022 11:15:00 AM 11.43 52.574 0.141 7.41 6.46 2.31
5/9/2022 11:30:00 AM 11.49 52.682 0.141 7.42 13.56 2.37
5/9/2022 11:45:00 AM 11.55 52.79 0.142 7.4 5.55 2.18
5/9/2022 12:00:00 PM 11.62 52.916 0.144 7.4 5.68 1.85
5/9/2022 12:15:00 PM 11.69 53.042 0.146 7.4 5.2 1.49
5/9/2022 12:30:00 PM 11.77 53.186 0.147 7.37 5.36 1.25
5/9/2022 12:45:00 PM 11.85 53.33 0.148 7.34 3.66 0.91
5/9/2022 1:00:00 PM 11.94 53.492 0.15 7.34 3.78 0.58
5/9/2022 1:15:00 PM 12.03 53.654 0.151 7.31 3.52 0.4
5/9/2022 1:30:00 PM 12.12 53.816 0.152 7.28 6.82 0.19
5/9/2022 1:45:00 PM 12.21 53.978 0.152 7.28 5.52 0.42
5/9/2022 2:00:00 PM 12.31 54.158 0.153 7.3 7.2 0.49
5/9/2022 2:15:00 PM 12.41 54.338 0.154 7.28 7.19 0.3
5/9/2022 2:30:00 PM 12.51 54.518 0.154 7.29 5.92 0.27
5/9/2022 2:45:00 PM 12.62 54.716 0.154 7.33 4.96 0.39
5/9/2022 3:00:00 PM 12.71 54.878 0.156 7.28 6.71 0.18
5/9/2022 3:15:00 PM 12.81 55.058 0.157 7.38 4.29 0.06
5/9/2022 3:30:00 PM 12.9 55.22 0.157 7.28 4.89 0.04
5/9/2022 3:45:00 PM 12.99 55.382 0.158 7.31 4.01 0.05
5/9/2022 4:00:00 PM 13.09 55.562 0.159 7.31 4.11 0.12
5/9/2022 4:15:00 PM 13.17 55.706 0.16 7.35 4.62 0.09
5/9/2022 4:30:00 PM 13.25 55.85 0.161 7.4 4.78 0.14
5/9/2022 4:45:00 PM 13.33 55.994 0.162 7.36 5.55 0.19
5/9/2022 5:00:00 PM 13.4 56.12 0.162 7.33 4.74 0.19
5/9/2022 5:15:00 PM 13.48 56.264 0.162 7.4 4.73 0.12
5/9/2022 5:30:00 PM 13.54 56.372 0.162 7.45 4.33 0.07
5/9/2022 5:45:00 PM 13.59 56.462 0.162 7.38 3.93 0.03
5/9/2022 6:00:00 PM 13.63 56.534 0.162 7.42 6.1 0.03
5/9/2022 6:15:00 PM 13.67 56.606 0.162 7.3 5.55 0.29
5/9/2022 6:30:00 PM 13.72 56.696 0.162 7.34 7.9 0.34
5/9/2022 6:45:00 PM 13.75 56.75 0.162 7.43 6.67 0.5
5/9/2022 7:00:00 PM 13.77 56.786 0.162 7.39 6.18 0.88
5/9/2022 7:15:00 PM 13.78 56.804 0.163 7.33 5.61 0.32
5/9/2022 7:30:00 PM 13.78 56.804 0.162 7.31 11.57 0.18
5/9/2022 7:45:00 PM 13.79 56.822 0.163 7.39 13.18 0.42
5/9/2022 8:00:00 PM 13.8 56.84 0.163 7.37 12.79 0.56
5/9/2022 8:15:00 PM 13.8 56.84 0.163 7.37 6.28 0.58
5/9/2022 8:30:00 PM 13.8 56.84 0.164 7.29 6.14 1.13
5/9/2022 8:45:00 PM 13.79 56.822 0.164 7.31 7.3 1.63
5/9/2022 9:00:00 PM 13.79 56.822 0.163 7.36 11.33 0.7
5/9/2022 9:15:00 PM 13.78 56.804 0.162 7.34 5.56 0.56
5/9/2022 9:30:00 PM 13.77 56.786 0.162 7.34 5.16 0.56
5/9/2022 9:45:00 PM 13.75 56.75 0.162 7.33 5.08 0.25
5/9/2022 10:00:00 PM 13.73 56.714 0.161 7.36 5.5 0.37
5/9/2022 10:15:00 PM 13.71 56.678 0.162 7.37 5.08 0.54
5/9/2022 10:30:00 PM 13.69 56.642 0.162 7.37 5.83 0.21
5/9/2022 10:45:00 PM 13.67 56.606 0.162 7.33 5.21 0.11
5/9/2022 11:00:00 PM 13.65 56.57 0.163 7.33 5.09 0.08
5/9/2022 11:15:00 PM 13.64 56.552 0.164 7.28 5.68 0.15
5/9/2022 11:30:00 PM 13.62 56.516 0.164 7.31 5.27 0.38
5/9/2022 11:45:00 PM 13.61 56.498 0.164 7.25 12.98 0.6
5/10/2022 12:00:00 AM 13.6 56.48 0.163 7.32 6.34 0.66
5/10/2022 12:15:00 AM 13.59 56.462 0.164 7.29 6.05 0.76
5/10/2022 12:30:00 AM 13.57 56.426 0.163 7.3 7.58 1.23
5/10/2022 12:45:00 AM 13.55 56.39 0.164 7.23 8.68 1.66
5/10/2022 1:00:00 AM 13.54 56.372 0.165 7.31 11.68 2.11
5/10/2022 1:15:00 AM 13.51 56.318 0.165 7.28 8.11 1.78
5/10/2022 1:30:00 AM 13.49 56.282 0.165 7.23 8.28 1.78
5/10/2022 1:45:00 AM 13.47 56.246 0.166 7.24 6.86 1.52
5/10/2022 2:00:00 AM 13.44 56.192 0.166 7.26 7.81 1.62
5/10/2022 2:15:00 AM 13.42 56.156 0.167 7.24 6.06 1.62
5/10/2022 2:30:00 AM 13.39 56.102 0.167 7.23 7.58 1.84
5/10/2022 2:45:00 AM 13.36 56.048 0.167 7.19 8.53 3.01
5/10/2022 3:00:00 AM 13.32 55.976 0.168 7.2 8.77 2.52
5/10/2022 3:15:00 AM 13.29 55.922 0.168 7.15 7.12 2.35
5/10/2022 3:30:00 AM 13.26 55.868 0.167 7.2 8.17 2.62
5/10/2022 3:45:00 AM 13.22 55.796 0.168 7.22 8.64 3.38
5/10/2022 4:00:00 AM 13.19 55.742 0.168 7.18 9.48 4.07
5/10/2022 4:15:00 AM 13.15 55.67 0.168 7.22 8.54 2.66
5/10/2022 4:30:00 AM 13.1 55.58 0.168 7.24 9.17 3.6
5/10/2022 4:45:00 AM 13.06 55.508 0.169 7.19 11 2.4
5/10/2022 5:00:00 AM 13.01 55.418 0.169 7.22 10 2.21
5/10/2022 5:15:00 AM 12.97 55.346 0.17 7.2 10.57 2.7
5/10/2022 5:30:00 AM 12.92 55.256 0.17 7.16 11.07 2.23
5/10/2022 5:45:00 AM 12.87 55.166 0.171 7.22 14.23 2.53
5/10/2022 6:00:00 AM 12.81 55.058 0.171 7.27 11.53 3.08
5/10/2022 6:15:00 AM 12.76 54.968 0.171 7.23 13.79 3.82
5/10/2022 6:30:00 AM 12.7 54.86 0.171 7.21 10.33 3.57
5/10/2022 6:45:00 AM 12.64 54.752 0.172 7.18 7.79 4.37
5/10/2022 7:00:00 AM 12.59 54.662 0.172 7.17 8.02 4.3
5/10/2022 7:15:00 AM 12.54 54.572 0.172 7.16 7.1 5.42
5/10/2022 7:30:00 AM 12.49 54.482 0.172 7.14 6.73 5.14
5/10/2022 7:45:00 AM 12.45 54.41 0.172 7.09 7.19 5
5/10/2022 8:00:00 AM 12.41 54.338 0.172 7.1 7.53 4.81
5/10/2022 8:15:00 AM 12.38 54.284 0.172 7.1 7.88 4.48
5/10/2022 8:30:00 AM 12.36 54.248 0.171 7.13 6.34 3.74
5/10/2022 8:45:00 AM 12.34 54.212 0.171 7.13 7.18 3.08
5/10/2022 9:00:00 AM 12.33 54.194 0.171 7.11 6.87 4.01
5/10/2022 9:15:00 AM 12.33 54.194 0.171 7.07 7.08 4.2
5/10/2022 9:30:00 AM 12.35 54.23 0.171 7.08 6.29 3.86
5/10/2022 9:45:00 AM 12.36 54.248 0.171 7.06 6.78 3.84
5/10/2022 10:00:00 AM 12.38 54.284 0.171 7.04 6.78 4.03
5/10/2022 10:15:00 AM 12.41 54.338 0.171 7.04 6.83 5.17
5/10/2022 10:30:00 AM 12.44 54.392 0.172 7.06 6.77 5.24
5/10/2022 10:45:00 AM 12.48 54.464 0.172 7.05 7.2 4.7
5/10/2022 11:00:00 AM 12.53 54.554 0.173 7.05 5.95 4.81
5/10/2022 11:15:00 AM 12.57 54.626 0.173 7.06 5.38 5.33
5/10/2022 11:30:00 AM 12.63 54.734 0.174 7.1 6.41 5.38
5/10/2022 11:45:00 AM 12.68 54.824 0.175 7.06 7.64 5.56
5/10/2022 12:00:00 PM 12.75 54.95 0.175 7.06 7.45 5.94
5/10/2022 12:15:00 PM 12.83 55.094 0.176 7.05 5.86 4.76
5/10/2022 12:30:00 PM 12.9 55.22 0.177 7.05 7.79 5.09
5/10/2022 12:45:00 PM 13 55.4 0.177 7.05 8.3 6.55
5/10/2022 1:00:00 PM 13.09 55.562 0.178 7.05 7.5 7.14
5/10/2022 1:15:00 PM 13.18 55.724 0.179 7.05 7.57 6.78
5/10/2022 1:30:00 PM 13.27 55.886 0.179 7.05 7.99 6.12
5/10/2022 1:45:00 PM 13.38 56.084 0.179 7.04 6.5 6.64
5/10/2022 2:00:00 PM 13.48 56.264 0.18 7.03 37.59 6.53
5/10/2022 2:15:00 PM 13.57 56.426 0.18 7.04 6.79 5.93
5/10/2022 2:30:00 PM 13.67 56.606 0.181 7.05 6.85 5.6
5/10/2022 2:45:00 PM 13.76 56.768 0.18 7.03 6.76 4.92
5/10/2022 3:00:00 PM 13.87 56.966 0.18 7.04 7.77 6.64
5/10/2022 3:15:00 PM 13.97 57.146 0.18 7.04 10.08 4.84
5/10/2022 3:30:00 PM 14.05 57.29 0.181 7.05 15.85 5.51
5/10/2022 3:45:00 PM 14.14 57.452 0.181 7.04 15.26 6.41
5/10/2022 4:00:00 PM 14.22 57.596 0.182 7.05 14.84 4.81
5/10/2022 4:15:00 PM 14.3 57.74 0.182 7.3 11.76 2.65
5/10/2022 4:30:00 PM 14.37 57.866 0.182 7.16 7.09 1.22
5/10/2022 4:45:00 PM 14.43 57.974 0.181 7.13 7.57 0.29
5/10/2022 5:00:00 PM 14.5 58.1 0.181 7.12 7.94 0.21
5/10/2022 5:15:00 PM 14.56 58.208 0.181 7.2 5.9 0.2
5/10/2022 5:30:00 PM 14.61 58.298 0.182 7.15 5.39 0.02
5/10/2022 5:45:00 PM 14.66 58.388 0.181 7.11 4.92 0.02
5/10/2022 6:00:00 PM 14.7 58.46 0.181 7.11 8.61 4.58
5/10/2022 6:15:00 PM 14.74 58.532 0.179 7.11 4.63 4.33
5/10/2022 6:30:00 PM 14.77 58.586 0.177 7.12 4.68 0.38
5/10/2022 6:45:00 PM 14.79 58.622 0.177 7.16 5.69 0.02
5/10/2022 7:00:00 PM 14.82 58.676 0.178 7.15 5.4 0.02
5/10/2022 7:15:00 PM 14.83 58.694 0.178 7.18 5.77 0.02
5/10/2022 7:30:00 PM 14.83 58.694 0.177 7.15 5.4 0.02
5/10/2022 7:45:00 PM 14.83 58.694 0.176 7.14 11.18 0.02
5/10/2022 8:00:00 PM 14.83 58.694 0.176 7.1 12.98 4.02
5/10/2022 8:15:00 PM 14.82 58.676 0.176 7.17 6.48 1.91
5/10/2022 8:30:00 PM 14.82 58.676 0.177 7.12 7.12 0.17
5/10/2022 8:45:00 PM 14.79 58.622 0.179 7.11 7.33 0.16
5/10/2022 9:00:00 PM 14.77 58.586 0.18 7.13 7.02 0.46
5/10/2022 9:15:00 PM 14.74 58.532 0.179 7.13 5.29 0.81
5/10/2022 9:30:00 PM 14.71 58.478 0.179 7.13 6.36 0.23
5/10/2022 9:45:00 PM 14.68 58.424 0.178 7.13 5.18 0.1
5/10/2022 10:00:00 PM 14.64 58.352 0.178 7.14 5.11 0.18
5/10/2022 10:15:00 PM 14.63 58.334 0.18 7.19 4.94 0.24
5/10/2022 10:30:00 PM 14.6 58.28 0.18 7.13 5.29 0.46
5/10/2022 10:45:00 PM 14.57 58.226 0.181 7.14 167.4 0.51
5/10/2022 11:00:00 PM 14.54 58.172 0.182 7.21 5.07 0.27
5/10/2022 11:15:00 PM 14.51 58.118 0.182 7.19 7.41 0.34
5/10/2022 11:30:00 PM 14.48 58.064 0.183 7.21 8.35 3.88
5/10/2022 11:45:00 PM 14.45 58.01 0.183 7.19 6.45 6.09
5/11/2022 12:00:00 AM 14.42 57.956 0.184 7.2 6.5 6.54
5/11/2022 12:15:00 AM 14.38 57.884 0.183 7.21 5.62 6.52
5/11/2022 12:30:00 AM 14.35 57.83 0.183 7.19 5.58 6.6
5/11/2022 12:45:00 AM 14.32 57.776 0.183 7.17 5.21 6.66
5/11/2022 1:00:00 AM 14.29 57.722 0.183 7.12 5.62 6.41
5/11/2022 1:15:00 AM 14.26 57.668 0.183 7.16 6.32 5.86
5/11/2022 1:30:00 AM 14.23 57.614 0.183 7.14 5.74 5.42
5/11/2022 1:45:00 AM 14.2 57.56 0.182 7.19 5.41 6.36
5/11/2022 2:00:00 AM 14.18 57.524 0.18 7.18 5.99 6.41
5/11/2022 2:15:00 AM 14.15 57.47 0.18 7.18 5.84 6.56
5/11/2022 2:30:00 AM 14.12 57.416 0.18 7.08 5.59 6.5
5/11/2022 2:45:00 AM 14.09 57.362 0.181 7.08 6.95 6.85
5/11/2022 3:00:00 AM 14.06 57.308 0.181 7.13 9.43 5.68
5/11/2022 3:15:00 AM 14.03 57.254 0.181 7.15 6.95 6
5/11/2022 3:30:00 AM 13.99 57.182 0.181 7.22 7.19 5.85
5/11/2022 3:45:00 AM 13.96 57.128 0.182 7.13 6.48 3.63
5/11/2022 4:00:00 AM 13.93 57.074 0.182 7.13 6.53 1.98
5/11/2022 4:15:00 AM 13.88 56.984 0.182 7.17 6.52 3.96
5/11/2022 4:30:00 AM 13.84 56.912 0.182 7.14 5.97 4.12
5/11/2022 4:45:00 AM 13.8 56.84 0.182 7.19 5.3 3.25
5/11/2022 5:00:00 AM 13.76 56.768 0.182 7.16 3.96 4.11
5/11/2022 5:15:00 AM 13.71 56.678 0.181 7.16 6.66 3.42
5/11/2022 5:30:00 AM 13.67 56.606 0.181 7.19 5.09 3.5
5/11/2022 5:45:00 AM 13.62 56.516 0.182 7.17 5.47 4.73
5/11/2022 6:00:00 AM 13.57 56.426 0.182 7.19 5.49 4.32
5/11/2022 6:15:00 AM 13.51 56.318 0.182 7.2 7.61 4.82
5/11/2022 6:30:00 AM 13.46 56.228 0.182 7.14 9.26 5.29
5/11/2022 6:45:00 AM 13.41 56.138 0.182 7.13 12.45 5.47
5/11/2022 7:00:00 AM 13.36 56.048 0.182 7.1 6.58 4.83
5/11/2022 7:15:00 AM 13.31 55.958 0.182 7.11 6 3.54
5/11/2022 7:30:00 AM 13.26 55.868 0.182 7.12 7.49 1.91
5/11/2022 7:45:00 AM 13.23 55.814 0.181 7.11 6.92 0.63
5/11/2022 8:00:00 AM 13.19 55.742 0.182 7.1 6.14 0.02
5/11/2022 8:15:00 AM 13.16 55.688 0.182 7.12 7.22 0.02
5/11/2022 8:30:00 AM 13.15 55.67 0.182 7.12 6.65 0.02
5/11/2022 8:45:00 AM 13.15 55.67 0.182 7.13 7.04 0.09
5/11/2022 9:00:00 AM 13.16 55.688 0.183 7.12 8.06 0.02
5/11/2022 9:15:00 AM 13.18 55.724 0.183 7.12 7.61 0.02
5/11/2022 9:30:00 AM 13.22 55.796 0.183 7.12 8.15 0.02
5/11/2022 9:45:00 AM 13.25 55.85 0.183 7.11 7.34 0.02
5/11/2022 10:00:00 AM 13.29 55.922 0.183 7.12 5.44 0.02
5/11/2022 10:15:00 AM 13.33 55.994 0.183 7.12 5.45 0.02
5/11/2022 10:30:00 AM 13.37 56.066 0.183 7.12 7.12 0.02
5/11/2022 10:45:00 AM 13.42 56.156 0.183 7.12 7.4 0.02
5/11/2022 11:00:00 AM 13.48 56.264 0.183 7.12 6.64 0.02
5/11/2022 11:15:00 AM 13.52 56.336 0.184 7.13 6.59 0.02
5/11/2022 11:30:00 AM 13.59 56.462 0.184 7.17 6.2 0.02
5/11/2022 11:45:00 AM 13.67 56.606 0.184 7.17 7.76 0.01
5/11/2022 12:00:00 PM 13.74 56.732 0.183 7.2 5.39 0.01
5/11/2022 12:15:00 PM 13.82 56.876 0.184 7.21 6.1 0.02
5/11/2022 12:30:00 PM 13.92 57.056 0.184 7.15 6.61 0.02
5/11/2022 12:45:00 PM 13.98 57.164 0.184 7.09 7.35 0.01
5/11/2022 1:00:00 PM 14.02 57.236 0.184 7.14 6.59 0.02
5/11/2022 1:15:00 PM 14.07 57.326 0.184 7.16 8.77 0.02
5/11/2022 1:30:00 PM 14.2 57.56 0.184 7.15 6.22 0.01
5/11/2022 1:45:00 PM 14.21 57.578 0.185 7.15 5.21 0.01
5/11/2022 2:00:00 PM 14.4 57.92 0.185 7.17 4.65 0.01
5/11/2022 2:15:00 PM 14.54 58.172 0.184 7.19 4.02 0.01
5/11/2022 2:30:00 PM 14.63 58.334 0.183 7.23 4 0.01
5/11/2022 2:45:00 PM 14.7 58.46 0.184 7.19 4.56 0.01
5/11/2022 3:00:00 PM 14.88 58.784 0.184 7.18 2153 0.01
5/11/2022 3:15:00 PM 14.92 58.856 0.185 7.21 25.72 0.01
5/11/2022 3:30:00 PM 15.04 59.072 0.185 7.27 15.64 0.01
5/11/2022 3:45:00 PM 15.11 59.198 0.186 7.39 14.36 0.01
5/11/2022 4:00:00 PM 15.15 59.27 0.186 7.34 15.55 0.01
5/11/2022 4:15:00 PM 15.33 59.594 0.186 7.03 15.19 0.01
5/11/2022 4:30:00 PM 15.39 59.702 0.187 7.08 14.52 0.01
5/11/2022 4:45:00 PM 15.43 59.774 0.187 7.04 14.33 0.01
5/11/2022 5:00:00 PM 15.45 59.81 0.188 7.03 19.51 0.01
5/11/2022 5:15:00 PM 15.49 59.882 0.188 7.01 15.71 0.01
5/11/2022 5:30:00 PM 15.51 59.918 0.188 6.98 14.65 0.01
5/11/2022 5:45:00 PM 15.55 59.99 0.189 7.02 25.35 0.01
5/11/2022 6:00:00 PM 15.57 60.026 0.19 7.04 15.29 0.01
5/11/2022 6:15:00 PM 15.54 59.972 0.19 7 15.59 0.01
5/11/2022 6:30:00 PM 15.52 59.936 0.19 7.04 15.13 0.01
5/11/2022 6:45:00 PM 15.56 60.008 0.19 7 15.11 0.01
5/11/2022 7:00:00 PM 15.55 59.99 0.19 6.99 21.99 0.01
5/11/2022 7:15:00 PM 15.67 60.206 0.19 6.99 15.9 0.01
5/11/2022 7:30:00 PM 15.64 60.152 0.19 7.16 16.21 0.01
5/11/2022 7:45:00 PM 15.63 60.134 0.19 7.05 15.47 0.01
5/11/2022 8:00:00 PM 15.62 60.116 0.19 7 12.21 0.01
5/11/2022 8:15:00 PM 15.6 60.08 0.19 6.99 12.95 0.01
5/11/2022 8:30:00 PM 15.59 60.062 0.19 6.99 12.75 0.01
5/11/2022 8:45:00 PM 15.59 60.062 0.19 7.04 13.11 0.01
5/11/2022 9:00:00 PM 15.59 60.062 0.191 7.05 12.48 0.01
5/11/2022 9:15:00 PM 15.6 60.08 0.191 7 12.94 0.01
5/11/2022 9:30:00 PM 15.62 60.116 0.191 7.04 13.29 0.01
5/11/2022 9:45:00 PM 15.56 60.008 0.191 7.12 23.98 0.01
5/11/2022 10:00:00 PM 15.61 60.098 0.19 7.08 51.91 0.01
5/11/2022 10:15:00 PM 15.58 60.044 0.19 7.18 46.47 0.01
5/11/2022 10:30:00 PM 15.5 59.9 0.189 7.02 571.8 0.01
5/11/2022 10:45:00 PM 15.45 59.81 0.189 6.99 46.17 0.01
5/11/2022 11:00:00 PM 15.41 59.738 0.188 7 45.33 0.01
5/11/2022 11:15:00 PM 15.38 59.684 0.188 7.02 42.42 0.01
5/11/2022 11:30:00 PM 15.36 59.648 0.187 7.02 46.26 0.01
5/11/2022 11:45:00 PM 15.33 59.594 0.187 7.02 49.06 0.01
5/12/2022 12:00:00 AM 15.3 59.54 0.188 7.01 27.24 0.01
5/12/2022 12:15:00 AM 15.28 59.504 0.188 7.03 28.07 0.01
5/12/2022 12:30:00 AM 15.26 59.468 0.188 7.03 38.46 0.01
5/12/2022 12:45:00 AM 15.24 59.432 0.188 7.04 28.29 0.01
5/12/2022 1:00:00 AM 15.21 59.378 0.188 7.04 28.36 0.01
5/12/2022 1:15:00 AM 15.19 59.342 0.188 7.07 28.81 0.01
5/12/2022 1:30:00 AM 15.19 59.342 0.188 7.04 67.85 0.01
5/12/2022 1:45:00 AM 15.17 59.306 0.188 7.06 66.31 0.01
5/12/2022 2:00:00 AM 15.16 59.288 0.188 7.09 18.53 0.01
5/12/2022 2:15:00 AM 15.11 59.198 0.188 7.06 9.5 0.01
5/12/2022 2:30:00 AM 15.1 59.18 0.188 7.05 9.68 0.01
5/12/2022 2:45:00 AM 15.07 59.126 0.187 7.2 10.7 0.01
5/12/2022 3:00:00 AM 15.03 59.054 0.187 7.09 9.7 0.02
5/12/2022 3:15:00 AM 15 59 0.187 7.15 9.42 0.02
5/12/2022 3:30:00 AM 14.97 58.946 0.187 7.15 10.24 0.01
5/12/2022 3:45:00 AM 14.94 58.892 0.188 7.08 10.84 0.01
5/12/2022 4:00:00 AM 14.9 58.82 0.188 7.06 10.41 0.02
5/12/2022 4:15:00 AM 14.86 58.748 0.188 7.07 12.03 0.01
5/12/2022 4:30:00 AM 14.83 58.694 0.188 7.06 10.88 0.02
5/12/2022 4:45:00 AM 14.8 58.64 0.188 7.06 11.09 0.02
5/12/2022 5:00:00 AM 14.76 58.568 0.188 7.05 10.87 0.01
5/12/2022 5:15:00 AM 14.73 58.514 0.188 7.06 10.59 0.02
5/12/2022 5:30:00 AM 14.7 58.46 0.188 7.07 10.88 0.02
5/12/2022 5:45:00 AM 14.68 58.424 0.188 7.21 9.69 0.02
5/12/2022 6:00:00 AM 14.65 58.37 0.189 7.29 10.3 0.02
5/12/2022 6:15:00 AM 14.61 58.298 0.189 7.26 11.15 0.02
5/12/2022 6:30:00 AM 14.57 58.226 0.189 7.29 12.57 0.02
5/12/2022 6:45:00 AM 14.54 58.172 0.189 7.29 14.36 0.02
5/12/2022 7:00:00 AM 14.5 58.1 0.189 7.15 10.4 0.02
5/12/2022 7:15:00 AM 14.47 58.046 0.189 7.25 34.66 0.02
5/12/2022 7:30:00 AM 14.44 57.992 0.189 7.24 12.45 0.02
5/12/2022 7:45:00 AM 14.42 57.956 0.189 7.13 13.7 0.02
5/12/2022 8:00:00 AM 14.4 57.92 0.19 7.19 35.75 0.02
5/12/2022 8:15:00 AM 14.4 57.92 0.19 7.18 22.31 0.02
5/12/2022 8:30:00 AM 14.4 57.92 0.19 7.12 11.16 0.02
5/12/2022 8:45:00 AM 14.41 57.938 0.19 7.19 10.37 0.02
5/12/2022 9:00:00 AM 14.43 57.974 0.19 7.09 12.7 0.01
5/12/2022 9:15:00 AM 14.46 58.028 0.19 7.14 11.79 0.02
5/12/2022 9:30:00 AM 14.5 58.1 0.191 7.11 10.96 0.01
5/12/2022 9:45:00 AM 14.54 58.172 0.191 7.1 11.73 0.02
5/12/2022 10:00:00 AM 14.59 58.262 0.191 7.09 11.5 0.01
5/12/2022 10:15:00 AM 14.63 58.334 0.192 7.1 11.1 0.02
5/12/2022 10:30:00 AM 14.65 58.37 0.191 7.1 11.39 0.02
5/12/2022 10:45:00 AM 14.67 58.406 0.19 7.2 12.84 0.01
5/12/2022 11:00:00 AM 14.69 58.442 0.19 7.09 11.55 0.02
5/12/2022 11:15:00 AM 14.74 58.532 0.19 7.09 89.8 0.01
5/12/2022 11:30:00 AM 14.81 58.658 0.19 7.12 15.02 0.02
5/12/2022 11:45:00 AM 14.96 58.928 0.189 7.17 11.21 0.01
5/12/2022 12:00:00 PM 15 59 0.189 7.12 30.91 0.02
5/12/2022 12:15:00 PM 15.08 59.144 0.189 7.31 28.09 0.01
5/12/2022 12:30:00 PM 15.15 59.27 0.19 7.19 12.68 0.01
5/12/2022 12:45:00 PM 15.2 59.36 0.19 7.19 13.65 0.01
5/12/2022 1:00:00 PM 15.28 59.504 0.19 7.38 15.67 0.02
5/12/2022 1:15:00 PM 15.3 59.54 0.19 7.21 14.37 0.01
5/12/2022 1:30:00 PM 15.34 59.612 0.19 7.15 14.11 0.01
5/12/2022 1:45:00 PM 15.44 59.792 0.19 7.27 15.24 0.01
5/12/2022 2:00:00 PM 15.56 60.008 0.19 7.22 11.73 0.01
5/12/2022 2:15:00 PM 15.63 60.134 0.19 7.18 11.67 0.01
5/12/2022 2:30:00 PM 15.72 60.296 0.191 7.26 18.39 0.01
5/12/2022 2:45:00 PM 15.8 60.44 0.191 7.15 9.83 0.01
5/12/2022 3:00:00 PM 15.92 60.656 0.192 7.29 18.3 0.01
5/12/2022 3:15:00 PM 15.98 60.764 0.192 7.23 15.65 0.01
5/12/2022 3:30:00 PM 16.21 61.178 0.191 7.37 17.26 0.01
5/12/2022 3:45:00 PM 16.25 61.25 0.192 7.25 8.08 0.01
5/12/2022 4:00:00 PM 16.24 61.232 0.192 7.28 12.74 0.01
5/12/2022 4:15:00 PM 16.24 61.232 0.192 7.15 11.04 0.01
5/12/2022 4:30:00 PM 16.34 61.412 0.192 7.19 10.43 0.01
5/12/2022 4:45:00 PM 16.42 61.556 0.191 7.3 11.44 0.01
5/12/2022 5:00:00 PM 16.49 61.682 0.191 7.18 1561 0.01
5/12/2022 5:15:00 PM 16.59 61.862 0.192 7.14 1439 0.01
5/12/2022 5:30:00 PM 16.59 61.862 0.192 7.28 1385 0.01
5/12/2022 5:45:00 PM 16.61 61.898 0.192 7.22 30.94 0.01
5/12/2022 6:00:00 PM 16.57 61.826 0.192 7.22 46.88 0.01
5/12/2022 6:15:00 PM 16.64 61.952 0.192 7.32 36.6 0.01
5/12/2022 6:30:00 PM 16.62 61.916 0.193 7.17 31.9 0.01
5/12/2022 6:45:00 PM 16.64 61.952 0.193 7.21 50.87 0.01
5/12/2022 7:00:00 PM 16.63 61.934 0.193 7.14 46.75 0.01
5/12/2022 7:15:00 PM 16.64 61.952 0.193 7.21 36.82 0.01
5/12/2022 7:30:00 PM 16.61 61.898 0.194 7.12 38.9 0.01
5/12/2022 7:45:00 PM 16.6 61.88 0.194 7.18 28.21 0.01
5/12/2022 8:00:00 PM 16.58 61.844 0.194 7.1 27.07 0.01
5/12/2022 8:15:00 PM 16.58 61.844 0.194 7.15 23.79 0.01
5/12/2022 8:30:00 PM 16.56 61.808 0.194 7.16 29.19 0.01
5/12/2022 8:45:00 PM 16.55 61.79 0.194 7.13 21.96 0.01
5/12/2022 9:00:00 PM 16.57 61.826 0.193 7.17 21.8 0.01
5/12/2022 9:15:00 PM 16.53 61.754 0.193 7.26 22.83 0.01
5/12/2022 9:30:00 PM 16.47 61.646 0.193 7.13 31.78 0.01
5/12/2022 9:45:00 PM 16.47 61.646 0.193 7.14 40.57 0.32
5/12/2022 10:00:00 PM 16.43 61.574 0.193 7.17 34.49 0.51
5/12/2022 10:15:00 PM 16.38 61.484 0.193 7.18 22.83 0.44
5/12/2022 10:30:00 PM 16.38 61.484 0.193 7.32 35.86 1.61
5/12/2022 10:45:00 PM 16.34 61.412 0.192 7.16 24.82 2.17
5/12/2022 11:00:00 PM 16.32 61.376 0.192 7.14 26.94 2.58
5/12/2022 11:15:00 PM 16.27 61.286 0.192 7.11 32.81 1.87
5/12/2022 11:30:00 PM 16.22 61.196 0.192 7.1 37.94 1.56
5/12/2022 11:45:00 PM 16.18 61.124 0.192 7.1 34.03 1.12
5/13/2022 12:00:00 AM 16.14 61.052 0.192 7.1 28.44 0.94
5/13/2022 12:15:00 AM 16.1 60.98 0.192 7.11 921.1 0.01
5/13/2022 12:30:00 AM 16.06 60.908 0.192 7.09 31.31 0.01
5/13/2022 12:45:00 AM 16.03 60.854 0.192 7.11 16.26 0.01
5/13/2022 1:00:00 AM 15.98 60.764 0.192 7.13 15.07 0.01
5/13/2022 1:15:00 AM 15.96 60.728 0.192 7.18 16.24 0.01
5/13/2022 1:30:00 AM 15.92 60.656 0.192 7.15 19.27 0.01
5/13/2022 1:45:00 AM 15.88 60.584 0.191 7.16 17.38 0.01
5/13/2022 2:00:00 AM 15.84 60.512 0.192 7.1 16.68 0.01
5/13/2022 2:15:00 AM 15.79 60.422 0.191 7.12 13.13 0.02
5/13/2022 2:30:00 AM 15.76 60.368 0.192 7.08 13.26 0.02
5/13/2022 2:45:00 AM 15.72 60.296 0.192 7.06 14.15 0.02
5/13/2022 3:00:00 AM 15.69 60.242 0.192 7.06 14.08 0.06
5/13/2022 3:15:00 AM 15.66 60.188 0.192 7.06 14.45 0.23
5/13/2022 3:30:00 AM 15.64 60.152 0.191 7.13 15.16 0.24
5/13/2022 3:45:00 AM 15.61 60.098 0.191 7.1 13.23 0.14
5/13/2022 4:00:00 AM 15.58 60.044 0.191 7.1 12.97 0.04
5/13/2022 4:15:00 AM 15.56 60.008 0.191 7.13 13.78 0.03
5/13/2022 4:30:00 AM 15.53 59.954 0.192 7.05 13.89 0.04
5/13/2022 4:45:00 AM 15.51 59.918 0.192 7.13 10.89 0.03
5/13/2022 5:00:00 AM 15.49 59.882 0.192 7.12 9.67 0.17
5/13/2022 5:15:00 AM 15.47 59.846 0.192 7.1 10.36 0.05
5/13/2022 5:30:00 AM 15.44 59.792 0.192 7.11 10.18 0.01
5/13/2022 5:45:00 AM 15.42 59.756 0.192 7.05 15.32 0.02

These are provisional data and have not been subject to a quality assurance process, but rather are the raw data reported by the instrument.
H: value is above sensor operating range
L: value is below sensor operating range
Offline: station is not reporting data
NC: parameter is not collected at site

Data Availability & Limitations

Uncertainty and potential for error can be associated with environmental monitoring data. Provisional data have not been subject to a quality assurance process, but rather are the raw data reported by the instrument. Data users are cautioned to consider carefully the provisional nature of the information before using it for decisions that concern personal or public safety or the conduct of business that involves substantial monetary or operational consequences.

Approved data are currently available by request by emailing: srbc@srbc.net. Approved data have been subject to a quality assurance process to correct for equipment or fouling drift. Data recorded during equipment malfunctions have been removed.

View Historical Stations that have been discontinued.